Glen Spey, New York
Current Conditions -  °F | °C
As of 9:55 AM on Tuesday 21 Oct 2014 (Local Time) from KMSV Reporting Station
Overcast Overcast  
Wind Chill:   Ceiling: 1000
Heat Index:   Visibility: 1.5mi
Dew Point:   Wind: 6mph
Humidity: 100%   Direction: 100°E
Pressure: 29.91"   Gusts: NA
Location:  41.48°N, 74.81°W
Report Text: KMSV 211355Z AUTO 10005KT 1 1/2SM SCT002 BKN010 OVC037 08/08 A2991 RMK AO1
Loading
Personal Weather Stations






























Interactive Weather Map
Tropical Storm Tracking
New forecast layout! Learn more

10-Day Weather Forecast

Advertisements
Track Severe Weather on mobile